Pagina principală
METAR-TAF:

METAR-TAF

Aeroporturi :

São Gabriel da Cachoeira, Amazonas, Brazilia

Latitudine: 00-08S, longitudine: 067-05W, elevație: 90 m

Observații meteo curente

Raportul a fost făcut în urmă cu 15 ore și 7 de minute, la 19:00 UTC
Vânt 7 kt de la Nord/Nord-vest
Temperatură 26°C
Umiditate 94%
Presiune 1010 hPa
Vizibilitate: 3000 m
Nori fragmentați la o înălțime de 1200 picior
Nori fragmentați la o înălțime de 2800 picior
Nori puțini la o înălțime de 4800 picior, Cumulus congestus.
ploaie, aer cețos,

METAR: SBUA 131900Z 34007KT 3000 RA BR BKN012 BKN028 FEW048TCU 26/25 Q1010

Ora: 06:07 (10:07 UTC)


TAF: lipsă

Observații și prognoze meteo pentru peste 4.000 de aeroporturi (rapoarte METAR și TAF).

Stațiile disponibile sunt reprezentate pe hartă prin puncte galbene și roșii.

Țineți indicatorul mouse-ului pe punctul dorit pentru a vedea denumirea stației.

Apoi, faceți clic pentru a vedea observațiile și prognozele meteorologice.

Pentru a schimba harta: Pentru mărire, faceți clic pe butoanele verzi cu cruce neagră; pentru micșorare, pe butonul verde cu o liniuță; pentru hărți învecinate, pe săgețile verzi.


METAR-TAF: